This is the latest recevied weather packets stored in our database for station/object K1BWE-1. If no packets are shown the sender has not sent any weather packets the latest 10 day(s).
| Time | Temp. | Humidity | Pressure | Rain* | Wind** | Luminosity | Snow |
|---|---|---|---|---|---|---|---|
| 1778083728 | 20.56° C | 34% | 1017.4 hPa | 0 mm | - | 606 W/m² | - |
| 1778083424 | 20° C | 33% | 1017.7 hPa | 0 mm | - | 602 W/m² | - |
| 1778083123 | 20° C | 36% | 1017.9 hPa | 0 mm | - | 563 W/m² | - |
| 1778082818 | 19.44° C | 37% | 1017.6 hPa | 0 mm | - | 510 W/m² | - |
| 1778081691 | 20° C | 34% | 1017.6 hPa | 0 mm | - | 482 W/m² | - |
| 1778081388 | 18.89° C | 37% | 1017.5 hPa | 0 mm | - | 461 W/m² | - |
| 1778081085 | 19.44° C | 37% | 1017.6 hPa | 0 mm | - | 400 W/m² | - |
| 1778080784 | 17.78° C | 41% | 1017.6 hPa | 0 mm | - | 371 W/m² | - |
| 1778080481 | 17.78° C | 41% | 1017.5 hPa | 0 mm | - | 305 W/m² | - |
| 1778080178 | 17.78° C | 41% | 1017.5 hPa | 0 mm | - | 300 W/m² | - |
| 1778079874 | 18.33° C | 40% | 1017.6 hPa | 0 mm | - | 268 W/m² | - |
| 1778079571 | 21.11° C | 39% | 1017.4 hPa | 0 mm | - | 296 W/m² | - |
| 1778079267 | 21.67° C | 37% | 1017.6 hPa | 0 mm | - | 278 W/m² | - |
| 1778078965 | 21.67° C | 37% | 1017.4 hPa | 0 mm | - | 251 W/m² | - |
| 1778078661 | 20.56° C | 41% | 1017.4 hPa | 0 mm | - | 248 W/m² | - |
| 1778078360 | 21.11° C | 38% | 1017.4 hPa | 0 mm | - | 238 W/m² | - |
| 1778078056 | 20° C | 40% | 1017.6 hPa | 0 mm | - | 215 W/m² | - |
| 1778077755 | 20° C | 39% | 1017.8 hPa | 0 mm | - | 183 W/m² | - |
| 1778077452 | 18.89° C | 46% | 1017.3 hPa | 0 mm | - | 178 W/m² | - |
| 1778077150 | 17.78° C | 47% | 1017.6 hPa | 0 mm | - | 164 W/m² | - |
| 1778076848 | 18.33° C | 45% | 1017.4 hPa | 0 mm | - | 145 W/m² | - |
| 1778076546 | 18.33° C | 47% | 1017.5 hPa | 0 mm | - | 124 W/m² | - |
| 1778076243 | 18.89° C | 47% | 1017.5 hPa | 0 mm | - | 124 W/m² | - |
| 1778075940 | 16.67° C | 49% | 1017.5 hPa | 0 mm | - | 130 W/m² | - |
| 1778075636 | 15° C | 53% | 1017.6 hPa | 0 mm | - | 110 W/m² | - |
* Rain latest hour (hover to see other rain measurements)
** Current wind speed in m/s (hover to see current wind gust speed)